createdAt,value
2022-12-24T00:00:42.805Z,0
2022-12-24T00:01:42.500Z,0
2022-12-24T00:02:43.073Z,0
2022-12-24T00:03:43.296Z,0
2022-12-24T00:04:42.261Z,0
2022-12-24T00:05:42.606Z,0
2022-12-24T00:06:42.338Z,0
2022-12-24T00:07:42.629Z,0
2022-12-24T00:08:42.756Z,0
2022-12-24T00:09:42.132Z,0
2022-12-24T00:10:42.385Z,0
2022-12-24T00:11:42.638Z,0
2022-12-24T00:12:42.662Z,0
2022-12-24T00:13:42.780Z,0
2022-12-24T00:14:42.729Z,0
2022-12-24T00:15:42.734Z,0
2022-12-24T00:16:43.099Z,0
2022-12-24T00:17:42.815Z,0
2022-12-24T00:18:52.022Z,0
2022-12-24T00:19:42.745Z,0
2022-12-24T00:20:42.309Z,0
2022-12-24T00:21:42.604Z,0
2022-12-24T00:22:42.619Z,0
2022-12-24T00:23:42.877Z,0
2022-12-24T00:24:42.926Z,0
2022-12-24T00:25:43.109Z,0
2022-12-24T00:26:42.953Z,0
2022-12-24T00:27:42.829Z,0
2022-12-24T00:28:42.972Z,0
2022-12-24T00:29:42.758Z,0
2022-12-24T00:30:43.200Z,0
2022-12-24T00:31:43.116Z,0
2022-12-24T00:32:43.035Z,0
2022-12-24T00:33:43.057Z,0
2022-12-24T00:34:43.079Z,0
2022-12-24T00:35:43.111Z,0
2022-12-24T00:36:42.590Z,0
2022-12-24T00:37:43.148Z,0
2022-12-24T00:38:42.937Z,0
2022-12-24T00:39:43.200Z,0
2022-12-24T00:40:43.269Z,0
2022-12-24T00:41:42.505Z,0
2022-12-24T00:42:43.226Z,0
2022-12-24T00:43:42.963Z,0
2022-12-24T00:44:43.274Z,0
2022-12-24T00:45:43.280Z,0
2022-12-24T00:46:43.830Z,0
2022-12-24T00:47:43.310Z,0
2022-12-24T00:48:43.329Z,0
2022-12-24T00:49:43.364Z,0
2022-12-24T00:50:43.466Z,0
2022-12-24T00:51:43.712Z,0
2022-12-24T00:52:43.154Z,0
2022-12-24T00:53:43.471Z,0
2022-12-24T00:54:43.222Z,0
2022-12-24T00:55:43.517Z,0
2022-12-24T00:56:43.222Z,0
2022-12-24T00:57:43.268Z,0
2022-12-24T00:58:43.508Z,0
2022-12-24T00:59:43.539Z,0
2022-12-24T01:00:43.559Z,0
2022-12-24T01:01:44.320Z,0
2022-12-24T01:02:44.514Z,0
2022-12-24T01:03:43.976Z,0
2022-12-24T01:04:43.634Z,0
2022-12-24T01:05:43.662Z,0
2022-12-24T01:06:43.661Z,0
2022-12-24T01:07:43.426Z,0
2022-12-24T01:08:43.520Z,0
2022-12-24T01:09:43.742Z,0
2022-12-24T01:10:43.778Z,0
2022-12-24T01:11:43.815Z,0
2022-12-24T01:12:43.903Z,0
2022-12-24T01:13:43.781Z,0
2022-12-24T01:14:43.551Z,0
2022-12-24T01:15:44.088Z,0
2022-12-24T01:16:43.682Z,0
2022-12-24T01:17:43.893Z,0
2022-12-24T01:18:44.036Z,0
2022-12-24T01:19:44.615Z,0
2022-12-24T01:20:43.403Z,0
2022-12-24T01:21:43.683Z,0
2022-12-24T01:22:43.983Z,0
2022-12-24T01:23:43.969Z,0
2022-12-24T01:24:43.497Z,0
2022-12-24T01:25:43.771Z,0
2022-12-24T01:26:43.846Z,0
2022-12-24T01:27:44.139Z,0
2022-12-24T01:28:43.967Z,0
2022-12-24T01:29:44.094Z,0
2022-12-24T01:30:44.181Z,0
2022-12-24T01:31:44.079Z,0
2022-12-24T01:32:44.130Z,0
2022-12-24T01:33:44.165Z,0
2022-12-24T01:34:43.923Z,0
2022-12-24T01:35:44.971Z,0
2022-12-24T01:36:44.194Z,0
2022-12-24T01:37:44.617Z,0
2022-12-24T01:38:44.318Z,0
2022-12-24T01:39:44.278Z,0
2022-12-24T01:40:44.283Z,0
2022-12-24T01:41:44.318Z,0
2022-12-24T01:42:44.332Z,0
2022-12-24T01:43:44.414Z,0
2022-12-24T01:44:44.954Z,0
2022-12-24T01:45:44.158Z,0
2022-12-24T01:46:44.713Z,0
2022-12-24T01:47:44.411Z,0
2022-12-24T01:48:44.484Z,0
2022-12-24T01:49:44.425Z,0
2022-12-24T01:50:44.466Z,0
2022-12-24T01:51:44.236Z,0
2022-12-24T01:52:44.626Z,0
2022-12-24T01:53:44.549Z,0
2022-12-24T01:54:44.006Z,0
2022-12-24T01:55:44.291Z,0
2022-12-24T01:56:44.879Z,0
2022-12-24T01:57:44.747Z,0
2022-12-24T01:58:44.653Z,0
2022-12-24T01:59:44.660Z,0
2022-12-24T02:00:44.122Z,0
2022-12-24T02:01:45.186Z,0
2022-12-24T02:02:44.993Z,0
2022-12-24T02:03:45.015Z,0
2022-12-24T02:04:44.203Z,0
2022-12-24T02:05:44.475Z,0
2022-12-24T02:06:44.472Z,0
2022-12-24T02:07:44.544Z,0
2022-12-24T02:08:45.095Z,0
2022-12-24T02:09:44.785Z,0
2022-12-24T02:10:44.807Z,0
2022-12-24T02:11:44.570Z,0
2022-12-24T02:12:44.597Z,0
2022-12-24T02:13:44.889Z,0
2022-12-24T02:14:44.397Z,0
2022-12-24T02:15:45.257Z,0
2022-12-24T02:16:45.048Z,0
2022-12-24T02:17:44.937Z,0
2022-12-24T02:18:44.921Z,0
2022-12-24T02:19:44.727Z,0
2022-12-24T02:20:44.989Z,0
2022-12-24T02:21:44.492Z,0
2022-12-24T02:22:45.000Z,0
2022-12-24T02:23:45.053Z,0
2022-12-24T02:24:44.806Z,0
2022-12-24T02:25:44.815Z,0
2022-12-24T02:26:44.322Z,0
2022-12-24T02:27:45.161Z,0
2022-12-24T02:28:45.138Z,0
2022-12-24T02:29:44.957Z,0
2022-12-24T02:30:44.973Z,0
2022-12-24T02:31:45.793Z,0
2022-12-24T02:32:44.668Z,0
2022-12-24T02:33:44.977Z,0
2022-12-24T02:34:45.262Z,0
2022-12-24T02:35:45.290Z,0
2022-12-24T02:36:44.743Z,0
2022-12-24T02:37:45.304Z,0
2022-12-24T02:38:45.313Z,0
2022-12-24T02:39:45.353Z,0
2022-12-24T02:40:45.064Z,0
2022-12-24T02:41:45.133Z,0
2022-12-24T02:42:45.126Z,0
2022-12-24T02:43:45.599Z,0
2022-12-24T02:44:45.412Z,0
2022-12-24T02:45:45.468Z,0
2022-12-24T02:46:45.728Z,0
2022-12-24T02:47:45.544Z,0
2022-12-24T02:48:45.589Z,0
2022-12-24T02:49:45.504Z,0
2022-12-24T02:50:45.262Z,0
2022-12-24T02:51:45.307Z,0
2022-12-24T02:52:45.613Z,0
2022-12-24T02:53:45.571Z,0
2022-12-24T02:54:45.591Z,0
2022-12-24T02:55:45.641Z,0
2022-12-24T02:56:45.565Z,0
2022-12-24T02:57:45.653Z,0
2022-12-24T02:58:45.389Z,0
2022-12-24T02:59:45.422Z,0
2022-12-24T03:00:45.655Z,0
2022-12-24T03:01:46.488Z,0
2022-12-24T03:02:46.164Z,0
2022-12-24T03:03:45.529Z,0
2022-12-24T03:04:45.538Z,0
2022-12-24T03:05:45.791Z,0
2022-12-24T03:06:45.033Z,0
2022-12-24T03:07:45.812Z,0
2022-12-24T03:08:45.326Z,0
2022-12-24T03:09:45.848Z,0
2022-12-24T03:10:45.868Z,0
2022-12-24T03:11:45.886Z,0
2022-12-24T03:12:45.652Z,0
2022-12-24T03:13:45.910Z,0
2022-12-24T03:14:45.975Z,0
2022-12-24T03:15:45.730Z,0
2022-12-24T03:16:46.296Z,0
2022-12-24T03:17:46.013Z,0
2022-12-24T03:18:46.098Z,0
2022-12-24T03:19:46.070Z,0
2022-12-24T03:20:45.795Z,0
2022-12-24T03:21:46.069Z,0
2022-12-24T03:22:46.073Z,0
2022-12-24T03:23:46.099Z,0
2022-12-24T03:24:46.123Z,0
2022-12-24T03:25:46.130Z,0
2022-12-24T03:26:46.168Z,0
2022-12-24T03:27:45.927Z,0
2022-12-24T03:28:45.936Z,0
2022-12-24T03:29:46.227Z,0
2022-12-24T03:30:46.246Z,0
2022-12-24T03:31:46.392Z,0
2022-12-24T03:32:46.003Z,0
2022-12-24T03:33:46.046Z,0
2022-12-24T03:34:46.299Z,0
2022-12-24T03:35:46.374Z,0
2022-12-24T03:36:46.065Z,0
2022-12-24T03:37:46.336Z,0
2022-12-24T03:38:46.363Z,0
2022-12-24T03:39:45.906Z,0
2022-12-24T03:40:46.140Z,0
2022-12-24T03:41:46.159Z,0
2022-12-24T03:42:46.171Z,0
2022-12-24T03:43:46.225Z,0
2022-12-24T03:44:46.199Z,0
2022-12-24T03:45:46.436Z,0
2022-12-24T03:46:46.250Z,0
2022-12-24T03:47:46.244Z,0
2022-12-24T03:48:46.282Z,0
2022-12-24T03:49:46.574Z,0
2022-12-24T03:50:46.618Z,0
2022-12-24T03:51:46.652Z,0
2022-12-24T03:52:46.355Z,0
2022-12-24T03:53:46.124Z,0
2022-12-24T03:54:46.677Z,0
2022-12-24T03:55:46.697Z,0
2022-12-24T03:56:46.668Z,0
2022-12-24T03:57:46.743Z,0
2022-12-24T03:58:46.440Z,0
2022-12-24T03:59:46.756Z,0
2022-12-24T04:00:46.597Z,0
2022-12-24T04:01:47.050Z,0
2022-12-24T04:02:47.469Z,0
2022-12-24T04:03:46.791Z,0
2022-12-24T04:04:46.573Z,0
2022-12-24T04:05:46.869Z,0
2022-12-24T04:06:47.284Z,0
2022-12-24T04:07:46.913Z,0
2022-12-24T04:08:46.896Z,0
2022-12-24T04:09:46.679Z,0
2022-12-24T04:10:46.445Z,0
2022-12-24T04:11:46.957Z,0
2022-12-24T04:12:46.987Z,0
2022-12-24T04:13:46.551Z,0
2022-12-24T04:14:47.033Z,0
2022-12-24T04:15:47.011Z,0
2022-12-24T04:16:47.259Z,0
2022-12-24T04:17:47.100Z,0
2022-12-24T04:18:47.459Z,0
2022-12-24T04:19:46.814Z,0
2022-12-24T04:20:47.070Z,0
2022-12-24T04:21:47.140Z,0
2022-12-24T04:22:47.166Z,0
2022-12-24T04:23:47.184Z,0
2022-12-24T04:24:46.918Z,0
2022-12-24T04:25:46.955Z,0
2022-12-24T04:26:47.179Z,0
2022-12-24T04:27:47.219Z,0
2022-12-24T04:28:47.239Z,0
2022-12-24T04:29:47.240Z,0
2022-12-24T04:30:47.252Z,0
2022-12-24T04:31:47.614Z,0
2022-12-24T04:32:47.043Z,0
2022-12-24T04:33:47.324Z,0
2022-12-24T04:34:47.339Z,0
2022-12-24T04:35:47.089Z,0
2022-12-24T04:36:47.382Z,0
2022-12-24T04:37:47.440Z,0
2022-12-24T04:38:47.160Z,0
2022-12-24T04:39:47.526Z,0
2022-12-24T04:40:47.419Z,0
2022-12-24T04:41:47.310Z,0
2022-12-24T04:42:47.466Z,0
2022-12-24T04:43:46.996Z,0
2022-12-24T04:44:47.534Z,0
2022-12-24T04:45:47.752Z,0
2022-12-24T04:46:47.295Z,0
2022-12-24T04:47:47.293Z,0
2022-12-24T04:48:47.588Z,0
2022-12-24T04:49:47.590Z,0
2022-12-24T04:50:47.602Z,0
2022-12-24T04:51:47.376Z,0
2022-12-24T04:52:47.673Z,0
2022-12-24T04:53:47.701Z,0
2022-12-24T04:54:47.777Z,0
2022-12-24T04:55:47.778Z,0
2022-12-24T04:56:47.738Z,0
2022-12-24T04:57:53.546Z,0
2022-12-24T04:58:47.757Z,0
2022-12-24T04:59:47.508Z,0
2022-12-24T05:00:47.823Z,0
2022-12-24T05:01:48.433Z,0
2022-12-24T05:02:48.540Z,0
2022-12-24T05:03:47.598Z,0
2022-12-24T05:04:47.579Z,0
2022-12-24T05:05:47.606Z,0
2022-12-24T05:06:47.886Z,0
2022-12-24T05:07:47.908Z,0
2022-12-24T05:08:47.678Z,0
2022-12-24T05:09:47.942Z,0
2022-12-24T05:10:47.777Z,0
2022-12-24T05:11:48.027Z,0
2022-12-24T05:12:47.992Z,0
2022-12-24T05:13:54.279Z,0
2022-12-24T05:14:47.874Z,0
2022-12-24T05:15:47.781Z,0
2022-12-24T05:16:48.328Z,0
2022-12-24T05:17:47.880Z,0
2022-12-24T05:18:48.288Z,0
2022-12-24T05:19:48.086Z,0
2022-12-24T05:20:47.857Z,0
2022-12-24T05:21:48.130Z,0
2022-12-24T05:22:48.174Z,0
2022-12-24T05:23:48.155Z,0
2022-12-24T05:24:48.192Z,0
2022-12-24T05:25:48.223Z,0
2022-12-24T05:26:48.275Z,0
2022-12-24T05:27:56.303Z,0
2022-12-24T05:28:47.988Z,0
2022-12-24T05:29:48.031Z,0
2022-12-24T05:30:48.207Z,0
2022-12-24T05:31:48.135Z,0
2022-12-24T05:32:48.324Z,0
2022-12-24T05:33:48.097Z,0
2022-12-24T05:34:48.370Z,0
2022-12-24T05:35:48.380Z,0
2022-12-24T05:36:48.216Z,0
2022-12-24T05:37:48.421Z,0
2022-12-24T05:38:48.419Z,0
2022-12-24T05:39:48.434Z,0
2022-12-24T05:40:48.201Z,0
2022-12-24T05:41:48.547Z,0
2022-12-24T05:42:48.279Z,0
2022-12-24T05:43:48.614Z,0
2022-12-24T05:44:48.551Z,0
2022-12-24T05:45:48.411Z,0
2022-12-24T05:46:48.556Z,0
2022-12-24T05:47:50.468Z,0
2022-12-24T05:48:48.611Z,0
2022-12-24T05:49:49.560Z,0
2022-12-24T05:50:49.786Z,0
2022-12-24T05:51:49.809Z,0
2022-12-24T05:52:48.423Z,0
2022-12-24T05:53:48.705Z,0
2022-12-24T05:54:48.432Z,0
2022-12-24T05:55:48.455Z,0
2022-12-24T05:56:48.737Z,0
2022-12-24T05:57:48.531Z,0
2022-12-24T05:58:48.541Z,0
2022-12-24T05:59:50.039Z,0
2022-12-24T06:00:48.789Z,0
2022-12-24T06:01:48.774Z,0
2022-12-24T06:02:48.636Z,0
2022-12-24T06:03:48.605Z,0
2022-12-24T06:04:49.266Z,0
2022-12-24T06:05:48.919Z,0
2022-12-24T06:06:48.911Z,0
2022-12-24T06:07:48.980Z,0
2022-12-24T06:08:48.963Z,0
2022-12-24T06:09:48.957Z,0
2022-12-24T06:10:48.977Z,0
2022-12-24T06:11:48.981Z,0
2022-12-24T06:12:49.515Z,0
2022-12-24T06:13:49.064Z,0
2022-12-24T06:14:48.804Z,0
2022-12-24T06:15:49.392Z,0
2022-12-24T06:16:49.075Z,0
2022-12-24T06:17:49.094Z,0
2022-12-24T06:18:49.502Z,0
2022-12-24T06:19:48.885Z,0
2022-12-24T06:20:49.125Z,0
2022-12-24T06:21:49.156Z,0
2022-12-24T06:22:48.933Z,0
2022-12-24T06:23:49.005Z,0
2022-12-24T06:24:49.196Z,0
2022-12-24T06:25:48.744Z,0
2022-12-24T06:26:49.242Z,0
2022-12-24T06:27:49.281Z,0
2022-12-24T06:28:49.311Z,0
2022-12-24T06:29:49.348Z,0
2022-12-24T06:30:49.592Z,0
2022-12-24T06:31:49.815Z,0
2022-12-24T06:32:49.340Z,0
2022-12-24T06:33:49.410Z,0
2022-12-24T06:34:49.380Z,0
2022-12-24T06:35:49.407Z,0
2022-12-24T06:36:49.429Z,0
2022-12-24T06:37:49.417Z,0
2022-12-24T06:38:49.466Z,0
2022-12-24T06:39:49.459Z,0
2022-12-24T06:40:49.502Z,0
2022-12-24T06:41:49.480Z,0
2022-12-24T06:42:49.551Z,0
2022-12-24T06:43:49.559Z,0
2022-12-24T06:44:49.583Z,0
2022-12-24T06:45:49.659Z,0
2022-12-24T06:46:49.769Z,0
2022-12-24T06:47:49.391Z,0
2022-12-24T06:48:49.714Z,0
2022-12-24T06:49:49.615Z,0
2022-12-24T06:50:49.496Z,0
2022-12-24T06:51:49.648Z,0
2022-12-24T06:52:49.672Z,0
2022-12-24T06:53:49.433Z,0
2022-12-24T06:54:49.723Z,0
2022-12-24T06:55:49.236Z,0
2022-12-24T06:56:49.731Z,0
2022-12-24T06:57:49.770Z,0
2022-12-24T06:58:49.772Z,0
2022-12-24T06:59:49.540Z,0
2022-12-24T07:00:49.021Z,0
2022-12-24T07:01:50.690Z,0
2022-12-24T07:02:50.209Z,0
2022-12-24T07:03:50.426Z,0
2022-12-24T07:04:49.901Z,0
2022-12-24T07:05:49.897Z,0
2022-12-24T07:06:49.672Z,0
2022-12-24T07:07:50.010Z,0
2022-12-24T07:08:50.004Z,0
2022-12-24T07:09:49.994Z,0
2022-12-24T07:10:57.333Z,0
2022-12-24T07:11:50.004Z,0
2022-12-24T07:12:49.777Z,0
2022-12-24T07:13:50.010Z,0
2022-12-24T07:14:49.801Z,0
2022-12-24T07:15:49.984Z,0
2022-12-24T07:16:58.618Z,0
2022-12-24T07:17:50.540Z,0
2022-12-24T07:18:50.230Z,0
2022-12-24T07:19:50.170Z,0
2022-12-24T07:20:49.888Z,0
2022-12-24T07:21:49.944Z,0
2022-12-24T07:22:50.181Z,0
2022-12-24T07:23:49.927Z,0
2022-12-24T07:24:50.209Z,0
2022-12-24T07:25:50.310Z,0
2022-12-24T07:26:50.287Z,0
2022-12-24T07:27:49.991Z,0
2022-12-24T07:28:50.292Z,0
2022-12-24T07:29:50.291Z,0
2022-12-24T07:30:50.301Z,0
2022-12-24T07:31:50.695Z,0
2022-12-24T07:32:50.079Z,0
2022-12-24T07:33:50.152Z,0
2022-12-24T07:34:50.155Z,0
2022-12-24T07:35:58.458Z,0
2022-12-24T07:36:50.411Z,0
2022-12-24T07:37:50.453Z,0
2022-12-24T07:38:50.431Z,0
2022-12-24T07:39:50.480Z,0
2022-12-24T07:40:50.473Z,0
2022-12-24T07:41:50.240Z,0
2022-12-24T07:42:50.513Z,0
2022-12-24T07:43:50.338Z,0
2022-12-24T07:44:50.309Z,4
2022-12-24T07:45:50.317Z,0
2022-12-24T07:46:50.724Z,4
2022-12-24T07:47:50.328Z,0
2022-12-24T07:48:50.107Z,0
2022-12-24T07:49:50.712Z,4
2022-12-24T07:50:50.423Z,4
2022-12-24T07:51:50.761Z,4
2022-12-24T07:52:50.672Z,4
2022-12-24T07:53:50.693Z,4
2022-12-24T07:54:50.447Z,4
2022-12-24T07:55:50.475Z,8
2022-12-24T07:56:50.740Z,4
2022-12-24T07:57:50.783Z,8
2022-12-24T07:58:50.524Z,8
2022-12-24T07:59:50.797Z,8
2022-12-24T08:00:51.569Z,8
2022-12-24T08:01:51.692Z,8
2022-12-24T08:02:51.853Z,8
2022-12-24T08:03:51.578Z,8
2022-12-24T08:04:50.886Z,12
2022-12-24T08:05:50.709Z,8
2022-12-24T08:06:50.703Z,4
2022-12-24T08:07:51.014Z,8
2022-12-24T08:08:52.067Z,4
2022-12-24T08:09:50.813Z,8
2022-12-24T08:10:50.985Z,8
2022-12-24T08:11:58.417Z,8
2022-12-24T08:12:50.772Z,8
2022-12-24T08:13:50.772Z,12
2022-12-24T08:14:51.051Z,8
2022-12-24T08:15:51.283Z,12
2022-12-24T08:16:51.871Z,12
2022-12-24T08:17:50.368Z,12
2022-12-24T08:18:51.569Z,12
2022-12-24T08:19:51.188Z,12
2022-12-24T08:20:51.215Z,12
2022-12-24T08:21:51.190Z,12
2022-12-24T08:22:51.239Z,12
2022-12-24T08:23:51.311Z,12
2022-12-24T08:24:50.959Z,12
2022-12-24T08:25:50.976Z,8
2022-12-24T08:26:50.976Z,12
2022-12-24T08:27:50.988Z,8
2022-12-24T08:28:51.029Z,12
2022-12-24T08:29:51.284Z,16
2022-12-24T08:30:51.313Z,12
2022-12-24T08:31:51.779Z,12
2022-12-24T08:32:51.355Z,8
2022-12-24T08:33:51.384Z,16
2022-12-24T08:34:51.119Z,12
2022-12-24T08:35:51.398Z,12
2022-12-24T08:36:51.209Z,16
2022-12-24T08:37:51.471Z,16
2022-12-24T08:38:51.261Z,20
2022-12-24T08:39:51.494Z,16
2022-12-24T08:40:51.196Z,16
2022-12-24T08:41:51.486Z,20
2022-12-24T08:42:52.030Z,16
2022-12-24T08:43:51.542Z,16
2022-12-24T08:44:51.851Z,12
2022-12-24T08:45:51.913Z,12
2022-12-24T08:46:51.417Z,12
2022-12-24T08:47:51.613Z,12
2022-12-24T08:48:51.340Z,12
2022-12-24T08:49:51.374Z,12
2022-12-24T08:50:51.665Z,16
2022-12-24T08:51:51.421Z,16
2022-12-24T08:52:51.574Z,16
2022-12-24T08:53:51.716Z,16
2022-12-24T08:54:51.461Z,12
2022-12-24T08:56:00.737Z,16
2022-12-24T08:56:51.752Z,16
2022-12-24T08:57:51.762Z,16
2022-12-24T08:58:51.767Z,16
2022-12-24T08:59:51.536Z,16
2022-12-24T09:00:51.590Z,16
2022-12-24T09:01:52.495Z,16
2022-12-24T09:02:52.233Z,16
2022-12-24T09:03:52.069Z,16
2022-12-24T09:04:51.873Z,16
2022-12-24T09:05:51.877Z,16
2022-12-24T09:06:51.657Z,16
2022-12-24T09:07:51.929Z,12
2022-12-24T09:08:51.741Z,12
2022-12-24T09:09:51.985Z,12
2022-12-24T09:10:52.012Z,12
2022-12-24T09:11:51.828Z,16
2022-12-24T09:12:52.011Z,16
2022-12-24T09:13:51.563Z,16
2022-12-24T09:14:52.030Z,12
2022-12-24T09:15:51.569Z,12
2022-12-24T09:16:52.445Z,8
2022-12-24T09:17:52.084Z,12
2022-12-24T09:18:52.063Z,16
2022-12-24T09:19:51.982Z,16
2022-12-24T09:21:00.128Z,16
2022-12-24T09:21:52.142Z,16
2022-12-24T09:22:51.974Z,12
2022-12-24T09:23:52.192Z,16
2022-12-24T09:24:52.241Z,12
2022-12-24T09:25:51.996Z,8
2022-12-24T09:27:00.613Z,8
2022-12-24T09:27:52.324Z,16
2022-12-24T09:28:52.257Z,16
2022-12-24T09:29:52.477Z,16
2022-12-24T09:30:52.302Z,24
2022-12-24T09:31:52.770Z,28
2022-12-24T09:32:52.079Z,24
2022-12-24T09:33:52.390Z,24
2022-12-24T09:34:52.381Z,24
2022-12-24T09:35:52.427Z,24
2022-12-24T09:36:52.415Z,20
2022-12-24T09:37:52.420Z,20
2022-12-24T09:38:52.425Z,20
2022-12-24T09:39:52.628Z,20
2022-12-24T09:40:52.459Z,20
2022-12-24T09:41:52.525Z,20
2022-12-24T09:42:52.286Z,24
2022-12-24T09:43:52.537Z,24
2022-12-24T09:44:52.258Z,24
2022-12-24T09:45:52.743Z,24
2022-12-24T09:46:52.615Z,24
2022-12-24T09:47:52.584Z,24
2022-12-24T09:48:52.353Z,28
2022-12-24T09:49:52.633Z,28
2022-12-24T09:50:51.914Z,24
2022-12-24T09:51:52.687Z,28
2022-12-24T09:52:52.666Z,24
2022-12-24T09:53:52.693Z,24
2022-12-24T09:54:57.292Z,20
2022-12-24T09:55:52.560Z,20
2022-12-24T09:56:52.714Z,16
2022-12-24T09:57:52.826Z,12
2022-12-24T09:58:52.928Z,12
2022-12-24T09:59:52.811Z,12
2022-12-24T10:00:56.944Z,12
2022-12-24T10:01:53.267Z,16
2022-12-24T10:02:53.601Z,12
2022-12-24T10:03:52.727Z,12
2022-12-24T10:04:52.860Z,8
2022-12-24T10:05:52.635Z,8
2022-12-24T10:06:52.913Z,8
2022-12-24T10:07:52.653Z,8
2022-12-24T10:08:52.945Z,8
2022-12-24T10:09:52.513Z,12
2022-12-24T10:10:52.984Z,16
2022-12-24T10:11:52.969Z,16
2022-12-24T10:12:57.111Z,16
2022-12-24T10:13:53.025Z,20
2022-12-24T10:14:53.070Z,24
2022-12-24T10:15:53.060Z,24
2022-12-24T10:16:53.725Z,24
2022-12-24T10:17:52.599Z,28
2022-12-24T10:18:56.930Z,32
2022-12-24T10:19:53.104Z,36
2022-12-24T10:20:54.110Z,40
2022-12-24T10:21:54.308Z,40
2022-12-24T10:22:53.195Z,44
2022-12-24T10:23:52.911Z,44
2022-12-24T10:24:57.905Z,52
2022-12-24T10:25:52.703Z,52
2022-12-24T10:26:53.246Z,56
2022-12-24T10:27:53.228Z,60
2022-12-24T10:28:53.283Z,76
2022-12-24T10:29:53.424Z,80
2022-12-24T10:30:53.043Z,76
2022-12-24T10:31:53.106Z,56
2022-12-24T10:32:53.099Z,56
2022-12-24T10:33:53.095Z,52
2022-12-24T10:34:53.352Z,44
2022-12-24T10:35:53.126Z,44
2022-12-24T10:36:52.889Z,44
2022-12-24T10:37:53.468Z,48
2022-12-24T10:38:53.457Z,44
2022-12-24T10:39:53.190Z,40
2022-12-24T10:40:53.518Z,44
2022-12-24T10:41:53.552Z,44
2022-12-24T10:42:58.626Z,40
2022-12-24T10:43:53.256Z,44
2022-12-24T10:44:53.580Z,32
2022-12-24T10:45:53.483Z,32
2022-12-24T10:46:53.833Z,36
2022-12-24T10:47:53.593Z,32
2022-12-24T10:48:57.619Z,32
2022-12-24T10:49:53.615Z,24
2022-12-24T10:50:53.623Z,28
2022-12-24T10:51:53.633Z,32
2022-12-24T10:52:53.656Z,40
2022-12-24T10:53:53.164Z,48
2022-12-24T10:54:53.700Z,52
2022-12-24T10:55:53.498Z,56
2022-12-24T10:56:53.709Z,56
2022-12-24T10:57:53.485Z,60
2022-12-24T10:58:53.507Z,68
2022-12-24T10:59:53.267Z,60
2022-12-24T11:00:53.550Z,56
2022-12-24T11:01:54.567Z,52
2022-12-24T11:02:54.537Z,52
2022-12-24T11:03:53.963Z,48
2022-12-24T11:04:53.915Z,44
2022-12-24T11:05:53.920Z,44
2022-12-24T11:06:56.611Z,40
2022-12-24T11:07:53.933Z,44
2022-12-24T11:08:53.707Z,44
2022-12-24T11:09:53.970Z,48
2022-12-24T11:10:53.949Z,52
2022-12-24T11:11:54.041Z,48
2022-12-24T11:13:41.645Z,44
2022-12-24T11:13:54.023Z,44
2022-12-24T11:14:54.163Z,36
2022-12-24T11:15:54.267Z,40
2022-12-24T11:16:54.067Z,44
2022-12-24T11:17:54.097Z,48
2022-12-24T11:18:58.899Z,48
2022-12-24T11:19:54.104Z,52
2022-12-24T11:20:53.875Z,56
2022-12-24T11:21:53.660Z,60
2022-12-24T11:22:53.889Z,68
2022-12-24T11:23:54.276Z,76
2022-12-24T11:24:57.673Z,76
2022-12-24T11:25:53.979Z,72
2022-12-24T11:26:54.022Z,72
2022-12-24T11:27:54.378Z,60
2022-12-24T11:28:54.238Z,60
2022-12-24T11:29:56.881Z,60
2022-12-24T11:30:54.597Z,56
2022-12-24T11:31:54.347Z,60
2022-12-24T11:32:54.090Z,68
2022-12-24T11:33:54.466Z,80
2022-12-24T11:34:54.511Z,80
2022-12-24T11:35:54.128Z,60
2022-12-24T11:36:54.159Z,64
2022-12-24T11:37:54.413Z,76
2022-12-24T11:38:54.156Z,80
2022-12-24T11:39:54.220Z,84
2022-12-24T11:40:54.505Z,72
2022-12-24T11:41:54.471Z,84
2022-12-24T11:42:54.480Z,92
2022-12-24T11:43:54.354Z,100
2022-12-24T11:44:54.267Z,68
2022-12-24T11:45:54.610Z,92
2022-12-24T11:46:54.700Z,96
2022-12-24T11:47:54.346Z,68
2022-12-24T11:48:54.597Z,80
2022-12-24T11:49:56.924Z,116
2022-12-24T11:50:54.699Z,64
2022-12-24T11:51:54.641Z,56
2022-12-24T11:52:54.129Z,60
2022-12-24T11:53:54.421Z,64
2022-12-24T11:54:54.437Z,64
2022-12-24T11:55:54.730Z,64
2022-12-24T11:56:54.744Z,44
2022-12-24T11:57:54.752Z,44
2022-12-24T11:58:54.209Z,40
2022-12-24T11:59:54.509Z,48
2022-12-24T12:00:54.534Z,40
2022-12-24T12:01:55.070Z,44
2022-12-24T12:02:54.891Z,40
2022-12-24T12:03:55.254Z,44
2022-12-24T12:04:54.593Z,44
2022-12-24T12:05:54.909Z,64
2022-12-24T12:06:54.959Z,80
2022-12-24T12:07:54.408Z,80
2022-12-24T12:08:54.919Z,56
2022-12-24T12:09:54.959Z,68
2022-12-24T12:10:54.952Z,64
2022-12-24T12:11:54.957Z,56
2022-12-24T12:12:55.006Z,40
2022-12-24T12:13:54.996Z,32
2022-12-24T12:14:54.843Z,44
2022-12-24T12:15:55.067Z,24
2022-12-24T12:16:54.520Z,20
2022-12-24T12:17:55.098Z,28
2022-12-24T12:18:54.893Z,28
2022-12-24T12:19:54.840Z,32
2022-12-24T12:20:55.125Z,32
2022-12-24T12:21:54.899Z,32
2022-12-24T12:22:55.281Z,36
2022-12-24T12:23:55.208Z,40
2022-12-24T12:24:54.667Z,32
2022-12-24T12:25:55.203Z,28
2022-12-24T12:26:54.954Z,28
2022-12-24T12:27:55.245Z,24
2022-12-24T12:28:54.981Z,28
2022-12-24T12:29:55.271Z,32
2022-12-24T12:30:55.350Z,36
2022-12-24T12:31:55.657Z,40
2022-12-24T12:32:55.663Z,48
2022-12-24T12:33:55.115Z,48
2022-12-24T12:34:55.368Z,44
2022-12-24T12:35:55.102Z,40
2022-12-24T12:36:55.375Z,44
2022-12-24T12:37:55.165Z,52
2022-12-24T12:38:55.512Z,60
2022-12-24T12:39:54.914Z,56
2022-12-24T12:40:56.611Z,48
2022-12-24T12:41:56.477Z,48
2022-12-24T12:42:56.214Z,40
2022-12-24T12:43:55.242Z,40
2022-12-24T12:44:55.524Z,52
2022-12-24T12:45:55.286Z,52
2022-12-24T12:46:55.602Z,40
2022-12-24T12:47:55.534Z,40
2022-12-24T12:49:02.966Z,36
2022-12-24T12:49:55.349Z,32
2022-12-24T12:50:55.620Z,28
2022-12-24T12:51:55.647Z,24
2022-12-24T12:52:55.111Z,28
2022-12-24T12:53:55.458Z,28
2022-12-24T12:54:55.779Z,28
2022-12-24T12:55:55.422Z,24
2022-12-24T12:56:55.710Z,20
2022-12-24T12:57:55.725Z,16
2022-12-24T12:58:55.743Z,16
2022-12-24T12:59:56.143Z,16
2022-12-24T13:00:55.801Z,12
2022-12-24T13:01:56.721Z,12
2022-12-24T13:02:56.330Z,16
2022-12-24T13:03:55.855Z,20
2022-12-24T13:04:55.858Z,28
2022-12-24T13:05:55.849Z,28
2022-12-24T13:06:55.637Z,28
2022-12-24T13:07:55.925Z,28
2022-12-24T13:08:55.648Z,24
2022-12-24T13:09:55.677Z,20
2022-12-24T13:10:56.021Z,20
2022-12-24T13:11:55.974Z,16
2022-12-24T13:12:55.989Z,12
2022-12-24T13:13:55.983Z,12
2022-12-24T13:14:55.997Z,12
2022-12-24T13:15:56.055Z,16
2022-12-24T13:16:56.153Z,16
2022-12-24T13:17:56.073Z,20
2022-12-24T13:18:56.553Z,20
2022-12-24T13:19:55.843Z,24
2022-12-24T13:20:56.130Z,24
2022-12-24T13:21:56.342Z,20
2022-12-24T13:22:55.618Z,20
2022-12-24T13:23:55.911Z,16
2022-12-24T13:24:59.478Z,20
2022-12-24T13:25:56.209Z,24
2022-12-24T13:26:56.276Z,20
2022-12-24T13:27:55.966Z,20
2022-12-24T13:28:56.222Z,20
2022-12-24T13:29:56.250Z,20
2022-12-24T13:30:56.023Z,24
2022-12-24T13:31:56.667Z,28
2022-12-24T13:32:56.342Z,28
2022-12-24T13:33:56.913Z,24
2022-12-24T13:34:56.080Z,16
2022-12-24T13:35:56.340Z,20
2022-12-24T13:36:55.849Z,16
2022-12-24T13:37:56.371Z,20
2022-12-24T13:38:56.156Z,16
2022-12-24T13:39:56.434Z,20
2022-12-24T13:40:55.937Z,16
2022-12-24T13:41:56.487Z,20
2022-12-24T13:42:56.322Z,24
2022-12-24T13:43:56.479Z,20
2022-12-24T13:44:56.227Z,20
2022-12-24T13:45:56.554Z,24
2022-12-24T13:46:56.554Z,24
2022-12-24T13:47:56.537Z,24
2022-12-24T13:48:56.563Z,20
2022-12-24T13:49:56.607Z,20
2022-12-24T13:50:56.401Z,20
2022-12-24T13:51:56.597Z,24
2022-12-24T13:52:56.660Z,28
2022-12-24T13:53:56.383Z,28
2022-12-24T13:54:56.450Z,24
2022-12-24T13:55:56.414Z,28
2022-12-24T13:56:56.451Z,32
2022-12-24T13:57:56.892Z,36
2022-12-24T13:58:56.823Z,32
2022-12-24T13:59:56.793Z,32
2022-12-24T14:00:56.889Z,24
2022-12-24T14:01:58.110Z,24
2022-12-24T14:02:57.555Z,28
2022-12-24T14:03:56.829Z,28
2022-12-24T14:04:56.618Z,24
2022-12-24T14:05:56.372Z,24
2022-12-24T14:06:56.904Z,24
2022-12-24T14:07:56.614Z,20
2022-12-24T14:08:56.953Z,24
2022-12-24T14:09:56.930Z,20
2022-12-24T14:10:56.970Z,20
2022-12-24T14:11:56.690Z,20
2022-12-24T14:12:56.989Z,24
2022-12-24T14:13:57.007Z,24
2022-12-24T14:14:57.070Z,24
2022-12-24T14:15:56.865Z,20
2022-12-24T14:16:57.474Z,20
2022-12-24T14:17:57.052Z,20
2022-12-24T14:18:56.998Z,16
2022-12-24T14:19:57.100Z,20
2022-12-24T14:20:57.087Z,20
2022-12-24T14:21:57.127Z,16
2022-12-24T14:22:57.129Z,20
2022-12-24T14:23:57.174Z,16
2022-12-24T14:24:56.915Z,16
2022-12-24T14:25:56.925Z,20
2022-12-24T14:26:57.171Z,20
2022-12-24T14:27:57.223Z,20
2022-12-24T14:28:57.216Z,20
2022-12-24T14:29:57.086Z,16
2022-12-24T14:30:57.328Z,16
2022-12-24T14:31:57.337Z,16
2022-12-24T14:32:57.304Z,12
2022-12-24T14:33:57.313Z,16